createdAt,value
2024-01-22T00:01:01.744Z,14.33
2024-01-22T00:03:28.983Z,12.20
2024-01-22T00:05:56.240Z,11.07
2024-01-22T00:08:23.485Z,11.97
2024-01-22T00:10:50.678Z,10.70
2024-01-22T00:13:17.884Z,9.87
2024-01-22T00:15:45.172Z,11.17
2024-01-22T00:18:12.616Z,12.20
2024-01-22T00:20:39.721Z,11.80
2024-01-22T00:23:07.851Z,50.73
2024-01-22T00:25:35.354Z,16.53
2024-01-22T00:28:02.512Z,13.03
2024-01-22T00:30:29.719Z,10.47
2024-01-22T00:32:57.297Z,9.03
2024-01-22T00:35:24.517Z,8.03
2024-01-22T00:37:51.766Z,7.47
2024-01-22T00:40:18.987Z,8.73
2024-01-22T00:42:46.215Z,8.33
2024-01-22T00:45:14.166Z,8.57
2024-01-22T00:47:41.362Z,8.23
2024-01-22T00:50:09.054Z,9.20
2024-01-22T00:52:36.167Z,10.40
2024-01-22T00:55:03.961Z,10.00
2024-01-22T00:57:31.156Z,10.80
2024-01-22T00:59:58.305Z,11.27
2024-01-22T01:02:26.626Z,10.73
2024-01-22T01:04:53.968Z,11.77
2024-01-22T01:07:21.171Z,11.23
2024-01-22T01:09:48.618Z,10.20
2024-01-22T01:12:15.964Z,9.60
2024-01-22T01:14:43.316Z,7.87
2024-01-22T01:17:10.446Z,8.10
2024-01-22T01:19:40.885Z,7.57
2024-01-22T01:22:08.130Z,7.67
2024-01-22T01:24:35.352Z,10.43
2024-01-22T01:27:02.969Z,12.33
2024-01-22T01:29:32.747Z,11.73
2024-01-22T01:31:59.951Z,10.90
2024-01-22T01:34:27.349Z,8.47
2024-01-22T01:36:54.661Z,8.33
2024-01-22T01:39:21.890Z,8.03
2024-01-22T01:41:52.099Z,8.27
2024-01-22T01:44:20.776Z,7.87
2024-01-22T01:46:47.947Z,8.20
2024-01-22T01:49:15.520Z,6.70
2024-01-22T01:51:42.839Z,8.40
2024-01-22T01:54:10.750Z,9.17
2024-01-22T01:56:38.076Z,7.07
2024-01-22T01:59:05.209Z,7.13
2024-01-22T02:01:32.422Z,6.30
2024-01-22T02:03:59.849Z,5.47
2024-01-22T02:06:27.222Z,7.10
2024-01-22T02:08:54.610Z,6.83
2024-01-22T02:11:25.067Z,8.20
2024-01-22T02:13:54.125Z,10.80
2024-01-22T02:16:21.329Z,8.67
2024-01-22T02:18:49.131Z,7.27
2024-01-22T02:21:16.526Z,6.77
2024-01-22T02:23:43.564Z,7.93
2024-01-22T02:26:10.755Z,8.03
2024-01-22T02:28:37.933Z,8.17
2024-01-22T02:31:05.459Z,8.90
2024-01-22T02:33:32.743Z,8.10
2024-01-22T02:36:00.132Z,8.37
2024-01-22T02:38:27.272Z,8.10
2024-01-22T02:40:54.425Z,9.17
2024-01-22T02:43:21.614Z,7.30
2024-01-22T02:45:50.323Z,7.73
2024-01-22T02:48:17.680Z,7.77
2024-01-22T02:50:44.972Z,7.47
2024-01-22T02:53:12.119Z,12.27
2024-01-22T02:55:39.297Z,9.87
2024-01-22T02:58:08.096Z,7.93
2024-01-22T03:00:35.731Z,8.30
2024-01-22T03:03:03.250Z,7.03
2024-01-22T03:05:30.396Z,7.60
2024-01-22T03:07:57.596Z,8.07
2024-01-22T03:10:24.938Z,7.13
2024-01-22T03:12:52.048Z,8.37
2024-01-22T03:15:19.384Z,7.10
2024-01-22T03:17:46.760Z,6.83
2024-01-22T03:20:14.917Z,7.73
2024-01-22T03:22:42.320Z,7.40
2024-01-22T03:25:09.625Z,7.77
2024-01-22T03:27:36.692Z,7.97
2024-01-22T03:30:04.262Z,7.73
2024-01-22T03:32:31.561Z,7.37
2024-01-22T03:34:58.792Z,8.20
2024-01-22T03:37:28.546Z,9.97
2024-01-22T03:39:58.169Z,10.60
2024-01-22T03:42:25.385Z,20.73
2024-01-22T03:44:54.424Z,26.47
2024-01-22T03:47:21.785Z,22.67
2024-01-22T03:49:49.016Z,19.50
2024-01-22T03:52:16.306Z,17.13
2024-01-22T03:54:43.437Z,15.80
2024-01-22T03:57:10.821Z,16.03
2024-01-22T03:59:38.918Z,12.33
2024-01-22T04:02:06.430Z,12.10
2024-01-22T04:04:33.903Z,23.60
2024-01-22T04:07:03.884Z,11.53
2024-01-22T04:09:31.209Z,9.30
2024-01-22T04:11:58.531Z,11.70
2024-01-22T04:14:25.738Z,12.20
2024-01-22T04:16:52.888Z,10.53
2024-01-22T04:19:20.186Z,15.30
2024-01-22T04:21:47.812Z,29.83
2024-01-22T04:24:15.213Z,105.07
2024-01-22T04:26:42.582Z,51.23
2024-01-22T04:29:10.560Z,40.67
2024-01-22T04:31:38.298Z,34.93
2024-01-22T04:34:05.630Z,18.93
2024-01-22T04:36:33.218Z,20.80
2024-01-22T04:39:00.374Z,18.60
2024-01-22T04:41:27.513Z,19.00
2024-01-22T04:43:54.827Z,35.07
2024-01-22T04:46:21.993Z,22.90
2024-01-22T04:48:49.392Z,19.73
2024-01-22T04:51:16.623Z,25.63
2024-01-22T04:53:43.883Z,43.00
2024-01-22T04:56:11.080Z,23.87
2024-01-22T04:58:38.268Z,87.20
2024-01-22T05:01:05.508Z,70.40
2024-01-22T05:03:32.853Z,67.37
2024-01-22T05:06:00.817Z,50.43
2024-01-22T05:08:31.025Z,105.67
2024-01-22T05:10:58.308Z,49.63
2024-01-22T05:13:25.372Z,64.07
2024-01-22T05:15:52.552Z,45.50
2024-01-22T05:18:21.300Z,27.57
2024-01-22T05:20:50.333Z,20.07
2024-01-22T05:23:17.767Z,20.13
2024-01-22T05:25:44.999Z,51.47
2024-01-22T05:28:12.187Z,46.60
2024-01-22T05:30:39.284Z,29.87
2024-01-22T05:33:06.483Z,22.60
2024-01-22T05:35:33.677Z,19.07
2024-01-22T05:38:01.189Z,15.33
2024-01-22T05:40:28.631Z,21.53
2024-01-22T05:42:55.788Z,19.37
2024-01-22T05:45:23.017Z,17.50
2024-01-22T05:47:51.220Z,26.77
2024-01-22T05:50:18.758Z,21.37
2024-01-22T05:52:46.119Z,14.93
2024-01-22T05:55:16.859Z,13.67
2024-01-22T05:57:48.484Z,12.97
2024-01-22T06:00:16.701Z,12.70
2024-01-22T06:02:44.680Z,13.40
2024-01-22T06:05:14.368Z,15.10
2024-01-22T06:07:44.194Z,13.10
2024-01-22T06:10:13.709Z,11.07
2024-01-22T06:12:41.134Z,11.57
2024-01-22T06:15:09.034Z,12.67
2024-01-22T06:17:36.532Z,11.97
2024-01-22T06:20:04.792Z,12.63
2024-01-22T06:22:32.016Z,10.47
2024-01-22T06:24:59.361Z,11.70
2024-01-22T06:27:26.681Z,12.80
2024-01-22T06:29:58.747Z,13.03
2024-01-22T06:32:30.608Z,11.10
2024-01-22T06:34:58.499Z,11.57
2024-01-22T06:37:25.916Z,15.20
2024-01-22T06:39:53.847Z,17.87
2024-01-22T06:42:27.747Z,16.37
2024-01-22T06:45:02.258Z,14.60
2024-01-22T06:47:31.572Z,14.90
2024-01-22T06:49:58.914Z,13.17
2024-01-22T06:52:29.063Z,11.20
2024-01-22T06:54:57.396Z,9.03
2024-01-22T06:57:24.785Z,12.60
2024-01-22T06:59:56.064Z,17.77
2024-01-22T07:02:28.672Z,14.87
2024-01-22T07:04:58.538Z,15.20
2024-01-22T07:07:27.318Z,13.80
2024-01-22T07:09:54.840Z,11.13
2024-01-22T07:12:22.268Z,11.17
2024-01-22T07:14:49.759Z,12.27
2024-01-22T07:17:18.484Z,11.70
2024-01-22T07:19:45.868Z,9.00
2024-01-22T07:22:13.119Z,9.37
2024-01-22T07:24:40.540Z,7.83
2024-01-22T07:27:08.531Z,7.13
2024-01-22T07:29:35.684Z,7.57
2024-01-22T07:32:03.659Z,6.90
2024-01-22T07:34:31.076Z,7.40
2024-01-22T07:36:58.376Z,11.33
2024-01-22T07:39:26.146Z,14.23
2024-01-22T07:41:53.510Z,15.20
2024-01-22T07:44:20.776Z,13.70
2024-01-22T07:46:50.413Z,13.13
2024-01-22T07:49:18.170Z,12.63
2024-01-22T07:51:45.381Z,10.73
2024-01-22T07:54:12.282Z,12.97
2024-01-22T07:56:39.403Z,12.80
2024-01-22T07:59:06.488Z,11.60
2024-01-22T08:01:33.800Z,13.47
2024-01-22T08:04:04.297Z,12.03
2024-01-22T08:06:32.700Z,12.80
2024-01-22T08:09:00.977Z,13.07
2024-01-22T08:11:28.102Z,14.13
2024-01-22T08:13:55.064Z,13.10
2024-01-22T08:16:22.133Z,16.13
2024-01-22T08:18:49.349Z,12.33
2024-01-22T08:21:16.801Z,12.97
2024-01-22T08:23:43.809Z,16.00
2024-01-22T08:26:10.899Z,14.13
2024-01-22T08:28:37.895Z,13.13
2024-01-22T08:31:05.077Z,13.37
2024-01-22T08:33:32.559Z,10.90
2024-01-22T08:36:01.053Z,10.37
2024-01-22T08:38:28.988Z,10.70
2024-01-22T08:40:56.157Z,6.77
2024-01-22T08:43:23.622Z,8.00
2024-01-22T08:45:53.859Z,6.50
2024-01-22T08:48:21.444Z,6.90
2024-01-22T08:50:48.716Z,7.30
2024-01-22T08:53:18.426Z,8.00
2024-01-22T08:56:15.001Z,7.60
2024-01-22T08:58:42.200Z,7.23
2024-01-22T09:01:09.948Z,7.20
2024-01-22T09:03:38.256Z,10.00
2024-01-22T09:06:06.580Z,7.30
2024-01-22T09:08:35.532Z,8.20
2024-01-22T09:11:04.227Z,8.30
2024-01-22T09:13:31.658Z,6.30
2024-01-22T09:16:00.149Z,6.60
2024-01-22T09:18:27.582Z,6.77
2024-01-22T09:20:56.298Z,6.17
2024-01-22T09:23:23.432Z,6.20
2024-01-22T09:25:50.378Z,6.53
2024-01-22T09:28:18.463Z,6.83
2024-01-22T09:30:45.926Z,5.80
2024-01-22T09:33:13.059Z,6.93
2024-01-22T09:35:42.475Z,9.37
2024-01-22T09:38:10.301Z,6.20
2024-01-22T09:40:37.329Z,5.37
2024-01-22T09:43:05.213Z,5.30
2024-01-22T09:45:34.069Z,5.83
2024-01-22T09:48:02.067Z,5.30
2024-01-22T09:50:29.720Z,6.37
2024-01-22T09:53:12.288Z,6.40
2024-01-22T09:55:42.352Z,5.17
2024-01-22T09:58:10.952Z,5.70
2024-01-22T10:00:40.338Z,6.23
2024-01-22T10:03:08.539Z,5.53
2024-01-22T10:05:35.824Z,5.53
2024-01-22T10:08:03.263Z,7.20
2024-01-22T10:10:30.497Z,7.10
2024-01-22T10:13:05.444Z,10.93
2024-01-22T10:15:38.351Z,9.47
2024-01-22T10:18:18.380Z,13.60
2024-01-22T10:20:48.636Z,19.90
2024-01-22T10:23:19.396Z,7.60
2024-01-22T10:25:48.912Z,7.20
2024-01-22T10:28:19.509Z,7.20
2024-01-22T10:31:02.867Z,8.13
2024-01-22T10:33:30.337Z,7.57
2024-01-22T10:35:58.956Z,8.13
2024-01-22T10:38:26.345Z,7.23
2024-01-22T10:40:54.147Z,6.63
2024-01-22T10:43:30.032Z,7.20
2024-01-22T10:46:00.003Z,8.37
2024-01-22T10:48:38.325Z,7.97
2024-01-22T10:51:12.949Z,7.87
2024-01-22T10:53:41.512Z,7.10
2024-01-22T10:56:29.790Z,7.60
2024-01-22T10:58:58.369Z,7.10
2024-01-22T11:01:28.508Z,7.40
2024-01-22T11:03:59.101Z,6.87
2024-01-22T11:06:31.045Z,6.47
2024-01-22T11:08:59.162Z,6.47
2024-01-22T11:11:29.240Z,7.00
2024-01-22T11:14:00.946Z,6.77
2024-01-22T11:16:29.108Z,7.37
2024-01-22T11:19:02.162Z,6.87
2024-01-22T11:21:36.285Z,8.10
2024-01-22T11:24:32.919Z,7.73
2024-01-22T11:27:00.055Z,6.67
2024-01-22T11:29:30.311Z,5.70
2024-01-22T11:32:27.695Z,7.87
2024-01-22T11:35:05.824Z,7.50
2024-01-22T11:37:39.850Z,9.80
2024-01-22T11:40:09.187Z,6.57
2024-01-22T11:42:37.296Z,5.93
2024-01-22T11:45:14.133Z,7.90
2024-01-22T11:47:43.474Z,6.53
2024-01-22T11:50:11.569Z,6.10
2024-01-22T11:52:39.732Z,6.07
2024-01-22T11:55:08.816Z,6.30
2024-01-22T11:57:39.052Z,5.90
2024-01-22T12:00:20.731Z,6.47
2024-01-22T12:02:49.903Z,6.47
2024-01-22T12:05:21.360Z,6.73
2024-01-22T12:07:51.002Z,6.63
2024-01-22T12:10:23.184Z,6.80
2024-01-22T12:13:01.049Z,12.40
2024-01-22T12:15:30.950Z,6.20
2024-01-22T12:17:58.235Z,8.13
2024-01-22T12:20:26.950Z,6.03
2024-01-22T12:23:05.544Z,6.30
2024-01-22T12:25:41.797Z,7.53
2024-01-22T12:28:14.632Z,8.37
2024-01-22T12:30:46.108Z,6.47
2024-01-22T12:33:22.880Z,5.90
2024-01-22T12:35:53.767Z,6.47
2024-01-22T12:38:25.035Z,6.20
2024-01-22T12:41:01.516Z,6.87
2024-01-22T12:43:30.105Z,5.17
2024-01-22T12:46:29.392Z,5.87
2024-01-22T12:48:57.560Z,6.07
2024-01-22T12:51:28.212Z,20.73
2024-01-22T12:53:56.489Z,15.60
2024-01-22T12:56:24.088Z,31.33
2024-01-22T12:58:53.183Z,45.00
2024-01-22T13:01:20.358Z,28.33
2024-01-22T13:03:47.563Z,227.00
2024-01-22T13:06:14.944Z,9.20
2024-01-22T13:08:42.019Z,10.83
2024-01-22T13:11:10.022Z,9.30
2024-01-22T13:13:37.282Z,14.93
2024-01-22T13:16:13.941Z,7.40
2024-01-22T13:18:45.561Z,7.07
2024-01-22T13:21:14.708Z,9.80
2024-01-22T13:23:42.451Z,7.43
2024-01-22T13:30:29.082Z,9.67
2024-01-22T13:32:56.563Z,12.27
2024-01-22T13:35:23.886Z,10.67
2024-01-22T13:37:50.782Z,11.90
2024-01-22T13:40:18.525Z,9.93
2024-01-22T13:42:45.595Z,11.63
2024-01-22T13:45:12.626Z,11.27
2024-01-22T13:47:40.668Z,10.10
2024-01-22T13:50:08.523Z,9.67
2024-01-22T13:52:36.264Z,9.87
2024-01-22T13:55:05.784Z,7.10
2024-01-22T13:57:33.081Z,9.60
2024-01-22T14:00:00.995Z,8.70
2024-01-22T14:02:31.446Z,7.30
2024-01-22T14:04:58.400Z,8.10
2024-01-22T14:07:25.286Z,8.40
2024-01-22T14:09:52.569Z,13.07
2024-01-22T14:12:20.297Z,9.87
2024-01-22T14:14:48.077Z,9.13
2024-01-22T14:17:15.720Z,11.07
2024-01-22T14:19:42.895Z,9.97
2024-01-22T14:22:10.690Z,9.73
2024-01-22T14:24:37.724Z,9.23
2024-01-22T14:27:05.729Z,9.40
2024-01-22T14:29:33.526Z,10.40
2024-01-22T14:32:01.144Z,10.73
2024-01-22T14:34:28.525Z,12.53
2024-01-22T14:36:55.505Z,11.27
2024-01-22T14:39:23.992Z,10.67
2024-01-22T14:41:51.396Z,11.10
2024-01-22T14:44:18.437Z,12.47
2024-01-22T14:46:47.196Z,10.53
2024-01-22T14:49:17.356Z,11.43
2024-01-22T14:51:50.799Z,11.73
2024-01-22T14:54:17.767Z,11.33
2024-01-22T14:56:45.549Z,11.53
2024-01-22T14:59:13.009Z,11.03
2024-01-22T15:01:40.101Z,12.73
2024-01-22T15:04:08.119Z,14.33
2024-01-22T15:06:35.260Z,15.17
2024-01-22T15:09:03.680Z,30.30
2024-01-22T15:11:31.722Z,44.53
2024-01-22T15:13:59.641Z,22.50
2024-01-22T15:16:28.555Z,15.60
2024-01-22T15:18:59.701Z,14.97
2024-01-22T15:21:26.981Z,18.60
2024-01-22T15:23:55.583Z,19.53
2024-01-22T15:26:23.408Z,17.93
2024-01-22T15:28:51.328Z,21.10
2024-01-22T15:31:18.745Z,23.77
2024-01-22T15:33:46.264Z,21.33
2024-01-22T15:36:14.504Z,18.93
2024-01-22T15:38:47.792Z,18.50
2024-01-22T15:41:18.619Z,17.50
2024-01-22T15:43:47.031Z,15.67
2024-01-22T15:46:18.608Z,15.33
2024-01-22T15:48:49.058Z,16.53
2024-01-22T15:51:16.430Z,17.93
2024-01-22T15:53:43.459Z,18.47
2024-01-22T15:56:13.045Z,23.37
2024-01-22T15:58:42.052Z,28.40
2024-01-22T16:01:20.474Z,30.57
2024-01-22T16:03:56.305Z,35.80
2024-01-22T16:06:26.005Z,35.70
2024-01-22T16:09:00.703Z,35.13
2024-01-22T16:11:31.880Z,33.80
2024-01-22T16:14:00.084Z,35.23
2024-01-22T16:16:28.915Z,32.13
2024-01-22T16:18:59.209Z,29.43
2024-01-22T16:21:31.923Z,31.63
2024-01-22T16:24:03.813Z,32.37
2024-01-22T16:26:31.318Z,30.90
2024-01-22T16:28:59.372Z,30.70
2024-01-22T16:31:26.369Z,36.13
2024-01-22T16:33:53.440Z,39.10
2024-01-22T16:36:23.754Z,41.37
2024-01-22T16:38:50.970Z,38.67
2024-01-22T16:41:19.599Z,38.03
2024-01-22T16:43:47.304Z,43.83
2024-01-22T16:46:14.905Z,40.17
2024-01-22T16:49:02.947Z,30.67
2024-01-22T16:51:49.839Z,28.10
2024-01-22T16:54:17.374Z,25.70
2024-01-22T16:56:44.621Z,23.90
2024-01-22T16:59:12.450Z,26.20
2024-01-22T17:01:39.751Z,27.03
2024-01-22T17:04:06.819Z,28.93
2024-01-22T17:06:37.351Z,35.00
2024-01-22T17:09:05.133Z,45.30
2024-01-22T17:11:32.236Z,62.77
2024-01-22T17:13:59.954Z,55.30
2024-01-22T17:16:26.899Z,68.57
2024-01-22T17:18:54.180Z,52.87
2024-01-22T17:21:22.091Z,31.10
2024-01-22T17:23:49.351Z,28.70
2024-01-22T17:26:17.992Z,26.70
2024-01-22T17:28:48.348Z,26.90
2024-01-22T17:31:16.143Z,26.90
2024-01-22T17:33:46.808Z,28.23
2024-01-22T17:36:17.316Z,31.03
2024-01-22T17:38:45.767Z,37.47
2024-01-22T17:41:14.340Z,35.73
2024-01-22T17:43:41.445Z,31.73
2024-01-22T17:46:10.142Z,30.47
2024-01-22T17:48:37.618Z,24.60
2024-01-22T17:51:08.054Z,20.53
2024-01-22T17:53:35.074Z,20.30
2024-01-22T17:56:04.282Z,17.37
2024-01-22T17:58:31.333Z,16.67
2024-01-22T18:00:58.403Z,16.10
2024-01-22T18:03:26.527Z,16.40
2024-01-22T18:05:53.992Z,17.60
2024-01-22T18:08:21.042Z,18.33
2024-01-22T18:10:51.496Z,19.40
2024-01-22T18:13:21.387Z,20.30
2024-01-22T18:15:50.083Z,18.97
2024-01-22T18:18:17.306Z,19.97
2024-01-22T18:20:44.315Z,17.67
2024-01-22T18:23:11.342Z,18.03
2024-01-22T18:25:38.386Z,18.17
2024-01-22T18:28:10.365Z,40.30
2024-01-22T18:30:40.534Z,56.00
2024-01-22T18:33:10.635Z,49.70
2024-01-22T18:35:40.168Z,55.77
2024-01-22T18:38:08.825Z,38.30
2024-01-22T18:40:36.171Z,26.77
2024-01-22T18:43:04.236Z,24.53
2024-01-22T18:45:33.369Z,61.50
2024-01-22T18:48:01.187Z,21.93
2024-01-22T18:50:28.413Z,19.40
2024-01-22T18:52:58.962Z,16.80
2024-01-22T18:55:26.151Z,14.37
2024-01-22T18:57:53.349Z,12.67
2024-01-22T19:00:21.111Z,14.77
2024-01-22T19:02:49.511Z,16.40
2024-01-22T19:05:19.105Z,23.80
2024-01-22T19:07:47.988Z,15.03
2024-01-22T19:10:16.058Z,11.83
2024-01-22T19:12:43.307Z,23.30
2024-01-22T19:15:12.755Z,13.40
2024-01-22T19:17:43.608Z,12.23
2024-01-22T19:20:12.476Z,12.73
2024-01-22T19:22:42.075Z,13.50
2024-01-22T19:25:09.732Z,17.67
2024-01-22T19:27:39.802Z,33.80
2024-01-22T19:30:10.079Z,38.37
2024-01-22T19:32:43.522Z,29.23
2024-01-22T19:35:13.617Z,20.77
2024-01-22T19:37:42.182Z,18.40
2024-01-22T19:40:10.115Z,18.73
2024-01-22T19:42:40.298Z,19.83
2024-01-22T19:45:09.209Z,21.77
2024-01-22T19:47:38.956Z,21.20
2024-01-22T19:50:09.544Z,24.80
2024-01-22T19:52:37.412Z,29.50
2024-01-22T19:55:04.716Z,28.87
2024-01-22T19:57:32.091Z,34.37
2024-01-22T20:00:03.977Z,31.97
2024-01-22T20:02:43.457Z,42.60
2024-01-22T20:05:11.724Z,46.90
2024-01-22T20:07:41.545Z,51.10
2024-01-22T20:10:09.573Z,54.00
2024-01-22T20:12:38.421Z,51.30
2024-01-22T20:15:07.656Z,43.67
2024-01-22T20:17:35.721Z,39.37
2024-01-22T20:20:07.678Z,35.87
2024-01-22T20:22:35.588Z,33.73
2024-01-22T20:25:24.137Z,33.20
2024-01-22T20:27:54.277Z,33.03
2024-01-22T20:30:22.017Z,30.63
2024-01-22T20:32:50.272Z,30.87
2024-01-22T20:35:17.925Z,31.13
2024-01-22T20:37:46.352Z,30.47
2024-01-22T20:40:15.219Z,31.27
2024-01-22T20:43:03.791Z,32.33
2024-01-22T20:45:33.247Z,30.57
2024-01-22T20:48:00.399Z,30.73
2024-01-22T20:50:27.557Z,32.13
2024-01-22T20:52:55.252Z,33.13
2024-01-22T20:55:24.041Z,36.13
2024-01-22T20:57:51.369Z,38.30
2024-01-22T21:00:20.744Z,42.20
2024-01-22T21:02:51.234Z,41.37
2024-01-22T21:05:39.135Z,53.23
2024-01-22T21:08:07.012Z,50.37
2024-01-22T21:10:34.239Z,49.90
2024-01-22T21:13:01.538Z,47.70
2024-01-22T21:15:29.503Z,48.10
2024-01-22T21:17:56.774Z,44.53
2024-01-22T21:20:24.469Z,45.63
2024-01-22T21:22:52.000Z,45.47
2024-01-22T21:25:39.185Z,45.17
2024-01-22T21:28:08.358Z,45.73
2024-01-22T21:30:35.425Z,47.90
2024-01-22T21:33:02.632Z,46.27
2024-01-22T21:35:29.658Z,45.53
2024-01-22T21:37:59.245Z,43.77
2024-01-22T21:40:26.263Z,39.67
2024-01-22T21:42:53.729Z,38.37
2024-01-22T21:45:20.742Z,43.83
2024-01-22T21:47:50.691Z,140.60
2024-01-22T21:50:17.801Z,241.70
2024-01-22T21:52:44.749Z,221.60
2024-01-22T21:55:12.614Z,122.87
2024-01-22T21:57:40.437Z,70.83
2024-01-22T22:00:08.743Z,68.80
2024-01-22T22:02:42.112Z,78.17
2024-01-22T22:05:10.888Z,48.20
2024-01-22T22:07:38.541Z,61.63
2024-01-22T22:10:08.136Z,42.87
2024-01-22T22:12:38.334Z,40.03
2024-01-22T22:15:06.452Z,37.67
2024-01-22T22:17:33.622Z,40.70
2024-01-22T22:20:02.309Z,42.13
2024-01-22T22:22:29.370Z,34.97
2024-01-22T22:24:56.652Z,29.53
2024-01-22T22:27:23.853Z,29.77
2024-01-22T22:29:50.896Z,21.63
2024-01-22T22:32:18.510Z,20.13
2024-01-22T22:34:45.671Z,19.43
2024-01-22T22:37:14.113Z,17.77
2024-01-22T22:39:41.146Z,21.77
2024-01-22T22:42:10.690Z,22.00
2024-01-22T22:44:37.871Z,21.07
2024-01-22T22:47:04.862Z,23.10
2024-01-22T22:49:32.028Z,25.13
2024-01-22T22:51:59.108Z,33.70
2024-01-22T22:54:26.077Z,36.43
2024-01-22T22:56:53.089Z,31.00
2024-01-22T22:59:20.166Z,31.40
2024-01-22T23:01:50.393Z,35.77
2024-01-22T23:04:17.792Z,34.60
2024-01-22T23:06:44.787Z,36.07
2024-01-22T23:09:14.241Z,35.13
2024-01-22T23:11:41.912Z,34.67
2024-01-22T23:14:10.849Z,30.00
2024-01-22T23:16:37.949Z,26.70
2024-01-22T23:19:05.380Z,24.07
2024-01-22T23:21:33.352Z,20.30
2024-01-22T23:24:01.610Z,19.37
2024-01-22T23:26:28.727Z,18.10
2024-01-22T23:28:55.792Z,16.23
2024-01-22T23:31:23.126Z,17.03
2024-01-22T23:33:50.319Z,18.03
2024-01-22T23:36:17.508Z,19.57
2024-01-22T23:38:44.938Z,17.27
2024-01-22T23:41:11.939Z,17.33
2024-01-22T23:43:39.000Z,15.97
2024-01-22T23:46:06.346Z,12.23
2024-01-22T23:48:33.599Z,13.20
2024-01-22T23:51:00.965Z,11.90
2024-01-22T23:53:29.161Z,10.73
2024-01-22T23:55:56.425Z,10.43
2024-01-22T23:58:23.608Z,9.57
